sensor_id;sensor_type;location;lat;lon;timestamp;pressure;altitude;pressure_sealevel;temperature;humidity
20115;BME280;10218;42.874;25.320;2023-04-25T00:02:16;96459.00;;;13.29;100.00
20115;BME280;10218;42.874;25.320;2023-04-25T00:04:43;96448.44;;;13.21;100.00
20115;BME280;10218;42.874;25.320;2023-04-25T00:07:11;96437.72;;;13.14;100.00
20115;BME280;10218;42.874;25.320;2023-04-25T00:09:39;96434.00;;;13.09;100.00
20115;BME280;10218;42.874;25.320;2023-04-25T00:12:06;96442.06;;;13.15;100.00
20115;BME280;10218;42.874;25.320;2023-04-25T00:14:33;96448.84;;;13.11;100.00
20115;BME280;10218;42.874;25.320;2023-04-25T00:17:01;96446.38;;;13.16;100.00
20115;BME280;10218;42.874;25.320;2023-04-25T00:19:29;96446.16;;;13.05;100.00
20115;BME280;10218;42.874;25.320;2023-04-25T00:21:56;96441.44;;;13.26;100.00
20115;BME280;10218;42.874;25.320;2023-04-25T00:24:24;96433.41;;;13.20;100.00
20115;BME280;10218;42.874;25.320;2023-04-25T00:26:51;96437.28;;;12.98;100.00
20115;BME280;10218;42.874;25.320;2023-04-25T00:29:18;96433.13;;;13.02;100.00
20115;BME280;10218;42.874;25.320;2023-04-25T00:31:45;96423.88;;;12.98;100.00
20115;BME280;10218;42.874;25.320;2023-04-25T00:34:12;96419.31;;;12.92;100.00
20115;BME280;10218;42.874;25.320;2023-04-25T00:36:40;96409.63;;;12.77;100.00
20115;BME280;10218;42.874;25.320;2023-04-25T00:39:07;96402.63;;;12.83;100.00
20115;BME280;10218;42.874;25.320;2023-04-25T00:41:34;96396.00;;;12.92;100.00
20115;BME280;10218;42.874;25.320;2023-04-25T00:44:03;96394.34;;;13.11;100.00
20115;BME280;10218;42.874;25.320;2023-04-25T00:46:35;96396.03;;;12.99;100.00
20115;BME280;10218;42.874;25.320;2023-04-25T00:49:02;96394.59;;;13.22;100.00
20115;BME280;10218;42.874;25.320;2023-04-25T00:51:30;96392.94;;;13.08;100.00
20115;BME280;10218;42.874;25.320;2023-04-25T00:54:00;96385.94;;;12.94;100.00
20115;BME280;10218;42.874;25.320;2023-04-25T00:56:28;96378.28;;;12.84;100.00
20115;BME280;10218;42.874;25.320;2023-04-25T00:58:56;96380.75;;;13.06;100.00
20115;BME280;10218;42.874;25.320;2023-04-25T01:01:23;96372.09;;;13.04;100.00
20115;BME280;10218;42.874;25.320;2023-04-25T01:03:53;96361.00;;;13.20;100.00
20115;BME280;10218;42.874;25.320;2023-04-25T01:06:21;96362.41;;;13.03;100.00
20115;BME280;10218;42.874;25.320;2023-04-25T01:08:49;96357.25;;;13.21;100.00
20115;BME280;10218;42.874;25.320;2023-04-25T01:11:16;96359.34;;;13.25;100.00
20115;BME280;10218;42.874;25.320;2023-04-25T01:13:43;96347.78;;;13.25;100.00
20115;BME280;10218;42.874;25.320;2023-04-25T01:16:11;96348.16;;;13.42;100.00
20115;BME280;10218;42.874;25.320;2023-04-25T01:18:41;96339.53;;;13.13;100.00
20115;BME280;10218;42.874;25.320;2023-04-25T01:21:12;96339.72;;;13.05;100.00
20115;BME280;10218;42.874;25.320;2023-04-25T01:23:40;96330.88;;;13.11;100.00
20115;BME280;10218;42.874;25.320;2023-04-25T01:26:11;96331.66;;;13.32;100.00
20115;BME280;10218;42.874;25.320;2023-04-25T01:28:39;96329.16;;;13.37;100.00
20115;BME280;10218;42.874;25.320;2023-04-25T01:31:11;96324.88;;;13.29;100.00
20115;BME280;10218;42.874;25.320;2023-04-25T01:33:38;96315.19;;;13.15;100.00
20115;BME280;10218;42.874;25.320;2023-04-25T01:36:06;96319.50;;;13.29;100.00
20115;BME280;10218;42.874;25.320;2023-04-25T01:38:34;96314.97;;;13.16;100.00
20115;BME280;10218;42.874;25.320;2023-04-25T01:41:02;96304.03;;;13.11;100.00
20115;BME280;10218;42.874;25.320;2023-04-25T01:43:29;96305.28;;;13.02;100.00
20115;BME280;10218;42.874;25.320;2023-04-25T01:45:57;96304.87;;;13.05;100.00
20115;BME280;10218;42.874;25.320;2023-04-25T01:48:24;96307.94;;;13.28;100.00
20115;BME280;10218;42.874;25.320;2023-04-25T01:50:52;96292.69;;;12.96;100.00
20115;BME280;10218;42.874;25.320;2023-04-25T01:53:19;96288.78;;;12.99;100.00
20115;BME280;10218;42.874;25.320;2023-04-25T01:55:46;96284.22;;;13.06;100.00
20115;BME280;10218;42.874;25.320;2023-04-25T01:58:13;96274.13;;;13.01;100.00
20115;BME280;10218;42.874;25.320;2023-04-25T02:00:42;96270.84;;;12.99;100.00
20115;BME280;10218;42.874;25.320;2023-04-25T02:03:10;96269.41;;;12.97;100.00
20115;BME280;10218;42.874;25.320;2023-04-25T02:05:38;96258.69;;;12.77;100.00
20115;BME280;10218;42.874;25.320;2023-04-25T02:08:07;96273.94;;;12.70;100.00
20115;BME280;10218;42.874;25.320;2023-04-25T02:10:36;96265.31;;;12.68;100.00
20115;BME280;10218;42.874;25.320;2023-04-25T02:13:04;96260.97;;;12.67;100.00
20115;BME280;10218;42.874;25.320;2023-04-25T02:15:32;96249.22;;;12.41;100.00
20115;BME280;10218;42.874;25.320;2023-04-25T02:18:00;96264.88;;;12.44;100.00
20115;BME280;10218;42.874;25.320;2023-04-25T02:20:29;96262.00;;;12.39;100.00
20115;BME280;10218;42.874;25.320;2023-04-25T02:22:57;96271.06;;;12.19;100.00
20115;BME280;10218;42.874;25.320;2023-04-25T02:25:24;96265.25;;;12.15;100.00
20115;BME280;10218;42.874;25.320;2023-04-25T02:27:52;96276.19;;;12.14;100.00
20115;BME280;10218;42.874;25.320;2023-04-25T02:30:19;96268.53;;;12.04;100.00
20115;BME280;10218;42.874;25.320;2023-04-25T02:32:46;96272.44;;;11.95;100.00
20115;BME280;10218;42.874;25.320;2023-04-25T02:35:14;96262.34;;;11.97;100.00
20115;BME280;10218;42.874;25.320;2023-04-25T02:37:41;96273.44;;;11.94;100.00
20115;BME280;10218;42.874;25.320;2023-04-25T02:40:09;96267.53;;;11.98;100.00
20115;BME280;10218;42.874;25.320;2023-04-25T02:42:36;96269.38;;;11.98;100.00
20115;BME280;10218;42.874;25.320;2023-04-25T02:45:04;96258.25;;;12.08;100.00
20115;BME280;10218;42.874;25.320;2023-04-25T02:47:31;96261.34;;;12.11;100.00
20115;BME280;10218;42.874;25.320;2023-04-25T02:49:58;96273.09;;;12.10;100.00
20115;BME280;10218;42.874;25.320;2023-04-25T02:52:25;96273.09;;;12.30;100.00
20115;BME280;10218;42.874;25.320;2023-04-25T02:54:53;96274.97;;;12.29;100.00
20115;BME280;10218;42.874;25.320;2023-04-25T02:57:20;96278.03;;;12.20;100.00
20115;BME280;10218;42.874;25.320;2023-04-25T02:59:48;96280.50;;;12.15;100.00
20115;BME280;10218;42.874;25.320;2023-04-25T03:02:15;96282.56;;;12.13;100.00
20115;BME280;10218;42.874;25.320;2023-04-25T03:04:42;96278.44;;;12.04;100.00
20115;BME280;10218;42.874;25.320;2023-04-25T03:07:09;96285.22;;;12.06;100.00
20115;BME280;10218;42.874;25.320;2023-04-25T03:09:36;96287.06;;;11.99;100.00
20115;BME280;10218;42.874;25.320;2023-04-25T03:12:04;96293.03;;;12.01;100.00
20115;BME280;10218;42.874;25.320;2023-04-25T03:14:32;96287.09;;;12.12;100.00
20115;BME280;10218;42.874;25.320;2023-04-25T03:16:59;96275.59;;;12.18;100.00
20115;BME280;10218;42.874;25.320;2023-04-25T03:19:26;96283.63;;;12.31;100.00
20115;BME280;10218;42.874;25.320;2023-04-25T03:21:54;96274.94;;;12.03;100.00
20115;BME280;10218;42.874;25.320;2023-04-25T03:24:21;96285.22;;;12.06;100.00
20115;BME280;10218;42.874;25.320;2023-04-25T03:26:48;96289.50;;;11.94;100.00
20115;BME280;10218;42.874;25.320;2023-04-25T03:29:15;96282.16;;;12.16;100.00
20115;BME280;10218;42.874;25.320;2023-04-25T03:31:42;96277.00;;;12.14;100.00
20115;BME280;10218;42.874;25.320;2023-04-25T03:34:09;96280.09;;;12.24;100.00
20115;BME280;10218;42.874;25.320;2023-04-25T03:36:37;96276.81;;;12.22;100.00
20115;BME280;10218;42.874;25.320;2023-04-25T03:39:05;96281.37;;;12.28;100.00
20115;BME280;10218;42.874;25.320;2023-04-25T03:41:33;96280.13;;;12.31;100.00
20115;BME280;10218;42.874;25.320;2023-04-25T03:44:00;96284.81;;;12.03;100.00
20115;BME280;10218;42.874;25.320;2023-04-25T03:46:27;96293.44;;;11.91;100.00
20115;BME280;10218;42.874;25.320;2023-04-25T03:48:55;96284.81;;;12.09;100.00
20115;BME280;10218;42.874;25.320;2023-04-25T03:51:22;96287.53;;;12.22;100.00
20115;BME280;10218;42.874;25.320;2023-04-25T03:53:49;96280.94;;;12.31;100.00
20115;BME280;10218;42.874;25.320;2023-04-25T03:56:31;96287.72;;;12.21;100.00
20115;BME280;10218;42.874;25.320;2023-04-25T03:58:59;96284.00;;;12.15;100.00
20115;BME280;10218;42.874;25.320;2023-04-25T04:01:26;96279.28;;;12.17;100.00
20115;BME280;10218;42.874;25.320;2023-04-25T04:03:53;96280.53;;;12.34;100.00
20115;BME280;10218;42.874;25.320;2023-04-25T04:06:20;96276.22;;;12.47;100.00
20115;BME280;10218;42.874;25.320;2023-04-25T04:08:48;96282.56;;;12.19;100.00
20115;BME280;10218;42.874;25.320;2023-04-25T04:11:15;96287.50;;;12.16;100.00
20115;BME280;10218;42.874;25.320;2023-04-25T04:13:42;96272.50;;;12.34;100.00
20115;BME280;10218;42.874;25.320;2023-04-25T04:16:09;96263.66;;;12.54;100.00
20115;BME280;10218;42.874;25.320;2023-04-25T04:18:37;96275.19;;;12.48;100.00
20115;BME280;10218;42.874;25.320;2023-04-25T04:21:04;96271.66;;;12.21;100.00
20115;BME280;10218;42.874;25.320;2023-04-25T04:23:32;96271.47;;;12.22;100.00
20115;BME280;10218;42.874;25.320;2023-04-25T04:25:59;96264.25;;;12.29;100.00
20115;BME280;10218;42.874;25.320;2023-04-25T04:28:27;96267.34;;;12.66;100.00
20115;BME280;10218;42.874;25.320;2023-04-25T04:30:54;96266.13;;;12.55;100.00
20115;BME280;10218;42.874;25.320;2023-04-25T04:33:24;96270.62;;;12.35;100.00
20115;BME280;10218;42.874;25.320;2023-04-25T04:35:52;96267.97;;;12.28;100.00
20115;BME280;10218;42.874;25.320;2023-04-25T04:38:20;96261.19;;;12.32;100.00
20115;BME280;10218;42.874;25.320;2023-04-25T04:40:49;96263.44;;;12.55;100.00
20115;BME280;10218;42.874;25.320;2023-04-25T04:43:17;96257.66;;;12.78;100.00
20115;BME280;10218;42.874;25.320;2023-04-25T04:45:45;96264.25;;;12.89;100.00
20115;BME280;10218;42.874;25.320;2023-04-25T04:48:14;96245.94;;;12.79;100.00
20115;BME280;10218;42.874;25.320;2023-04-25T04:50:44;96255.19;;;12.83;100.00
20115;BME280;10218;42.874;25.320;2023-04-25T04:53:13;96252.50;;;12.76;100.00
20115;BME280;10218;42.874;25.320;2023-04-25T04:55:40;96246.31;;;12.76;100.00
20115;BME280;10218;42.874;25.320;2023-04-25T04:58:08;96250.03;;;12.75;100.00
20115;BME280;10218;42.874;25.320;2023-04-25T05:00:36;96257.25;;;12.61;100.00
20115;BME280;10218;42.874;25.320;2023-04-25T05:03:03;96248.38;;;12.87;100.00
20115;BME280;10218;42.874;25.320;2023-04-25T05:05:33;96248.81;;;12.77;100.00
20115;BME280;10218;42.874;25.320;2023-04-25T05:08:01;96251.06;;;12.87;100.00
20115;BME280;10218;42.874;25.320;2023-04-25T05:10:29;96249.97;;;13.27;100.00
20115;BME280;10218;42.874;25.320;2023-04-25T05:12:56;96249.91;;;13.47;100.00
20115;BME280;10218;42.874;25.320;2023-04-25T05:15:23;96244.31;;;13.49;100.00
20115;BME280;10218;42.874;25.320;2023-04-25T05:17:51;96249.41;;;13.70;100.00
20115;BME280;10218;42.874;25.320;2023-04-25T05:20:18;96250.44;;;13.69;100.00
20115;BME280;10218;42.874;25.320;2023-04-25T05:22:47;96243.44;;;13.61;100.00
20115;BME280;10218;42.874;25.320;2023-04-25T05:25:15;96249.97;;;13.79;100.00
20115;BME280;10218;42.874;25.320;2023-04-25T05:27:44;96258.13;;;13.59;100.00
20115;BME280;10218;42.874;25.320;2023-04-25T05:30:12;96245.59;;;13.84;100.00
20115;BME280;10218;42.874;25.320;2023-04-25T05:32:40;96249.56;;;14.13;100.00
20115;BME280;10218;42.874;25.320;2023-04-25T05:35:07;96242.16;;;14.08;100.00
20115;BME280;10218;42.874;25.320;2023-04-25T05:37:35;96243.56;;;14.49;100.00
20115;BME280;10218;42.874;25.320;2023-04-25T05:40:04;96235.53;;;14.92;100.00
20115;BME280;10218;42.874;25.320;2023-04-25T05:42:33;96243.97;;;14.95;100.00
20115;BME280;10218;42.874;25.320;2023-04-25T05:45:01;96238.66;;;14.89;100.00
20115;BME280;10218;42.874;25.320;2023-04-25T05:47:28;96238.13;;;14.80;100.00
20115;BME280;10218;42.874;25.320;2023-04-25T05:49:57;96245.41;;;14.73;100.00
20115;BME280;10218;42.874;25.320;2023-04-25T05:52:25;96244.81;;;14.71;100.00
20115;BME280;10218;42.874;25.320;2023-04-25T05:54:52;96242.00;;;14.84;100.00
20115;BME280;10218;42.874;25.320;2023-04-25T05:57:24;96237.16;;;15.18;100.00
20115;BME280;10218;42.874;25.320;2023-04-25T05:59:52;96239.06;;;15.29;100.00
20115;BME280;10218;42.874;25.320;2023-04-25T06:02:20;96245.69;;;15.51;100.00
20115;BME280;10218;42.874;25.320;2023-04-25T06:04:50;96239.31;;;15.46;100.00
20115;BME280;10218;42.874;25.320;2023-04-25T06:07:18;96238.47;;;15.45;100.00
20115;BME280;10218;42.874;25.320;2023-04-25T06:09:45;96235.06;;;15.38;100.00
20115;BME280;10218;42.874;25.320;2023-04-25T06:12:13;96232.59;;;15.55;100.00
20115;BME280;10218;42.874;25.320;2023-04-25T06:14:40;96225.78;;;15.70;100.00
20115;BME280;10218;42.874;25.320;2023-04-25T06:17:07;96209.34;;;15.60;100.00
20115;BME280;10218;42.874;25.320;2023-04-25T06:19:35;96213.13;;;15.71;100.00
20115;BME280;10218;42.874;25.320;2023-04-25T06:22:03;96217.47;;;16.02;100.00
20115;BME280;10218;42.874;25.320;2023-04-25T06:24:30;96214.66;;;15.97;100.00
20115;BME280;10218;42.874;25.320;2023-04-25T06:26:58;96219.31;;;16.19;100.00
20115;BME280;10218;42.874;25.320;2023-04-25T06:29:25;96226.50;;;15.77;100.00
20115;BME280;10218;42.874;25.320;2023-04-25T06:31:52;96228.09;;;15.67;100.00
20115;BME280;10218;42.874;25.320;2023-04-25T06:34:19;96235.00;;;15.93;100.00
20115;BME280;10218;42.874;25.320;2023-04-25T06:36:47;96231.16;;;16.30;100.00
20115;BME280;10218;42.874;25.320;2023-04-25T06:39:14;96235.31;;;16.56;100.00
20115;BME280;10218;42.874;25.320;2023-04-25T06:41:41;96237.50;;;17.00;100.00
20115;BME280;10218;42.874;25.320;2023-04-25T06:44:13;96236.78;;;16.82;100.00
20115;BME280;10218;42.874;25.320;2023-04-25T06:46:42;96238.66;;;16.93;100.00
20115;BME280;10218;42.874;25.320;2023-04-25T06:49:13;96248.56;;;17.74;100.00
20115;BME280;10218;42.874;25.320;2023-04-25T06:51:41;96243.41;;;18.12;100.00
20115;BME280;10218;42.874;25.320;2023-04-25T06:54:08;96249.84;;;16.96;100.00
20115;BME280;10218;42.874;25.320;2023-04-25T06:56:35;96241.66;;;18.06;100.00
20115;BME280;10218;42.874;25.320;2023-04-25T06:59:03;96240.31;;;18.82;100.00
20115;BME280;10218;42.874;25.320;2023-04-25T07:01:30;96244.75;;;17.46;100.00
20115;BME280;10218;42.874;25.320;2023-04-25T07:03:58;96237.91;;;18.07;100.00
20115;BME280;10218;42.874;25.320;2023-04-25T07:06:25;96226.63;;;17.70;100.00
20115;BME280;10218;42.874;25.320;2023-04-25T07:08:54;96243.09;;;17.34;100.00
20115;BME280;10218;42.874;25.320;2023-04-25T07:11:22;96241.34;;;18.19;100.00
20115;BME280;10218;42.874;25.320;2023-04-25T07:13:49;96243.56;;;18.51;100.00
20115;BME280;10218;42.874;25.320;2023-04-25T07:16:17;96243.34;;;19.57;100.00
20115;BME280;10218;42.874;25.320;2023-04-25T07:18:45;96227.91;;;20.01;100.00
20115;BME280;10218;42.874;25.320;2023-04-25T07:21:12;96236.84;;;20.02;100.00
20115;BME280;10218;42.874;25.320;2023-04-25T07:23:40;96236.59;;;20.03;100.00
20115;BME280;10218;42.874;25.320;2023-04-25T07:26:08;96232.38;;;18.92;100.00
20115;BME280;10218;42.874;25.320;2023-04-25T07:28:36;96235.72;;;18.66;100.00
20115;BME280;10218;42.874;25.320;2023-04-25T07:31:03;96234.16;;;18.70;100.00
20115;BME280;10218;42.874;25.320;2023-04-25T07:33:31;96233.06;;;19.21;100.00
20115;BME280;10218;42.874;25.320;2023-04-25T07:35:58;96231.28;;;19.10;100.00
20115;BME280;10218;42.874;25.320;2023-04-25T07:38:26;96231.25;;;20.62;95.97
20115;BME280;10218;42.874;25.320;2023-04-25T07:40:54;96228.84;;;20.34;80.30
20115;BME280;10218;42.874;25.320;2023-04-25T07:43:21;96232.78;;;19.99;79.73
20115;BME280;10218;42.874;25.320;2023-04-25T07:45:49;96229.94;;;19.68;80.92
20115;BME280;10218;42.874;25.320;2023-04-25T07:48:17;96228.94;;;19.95;82.55
20115;BME280;10218;42.874;25.320;2023-04-25T07:50:50;96225.34;;;20.17;87.18
20115;BME280;10218;42.874;25.320;2023-04-25T07:53:17;96223.66;;;20.32;82.66
20115;BME280;10218;42.874;25.320;2023-04-25T07:55:45;96230.47;;;21.83;61.73
20115;BME280;10218;42.874;25.320;2023-04-25T07:58:13;96232.84;;;21.69;53.65
20115;BME280;10218;42.874;25.320;2023-04-25T08:00:41;96222.25;;;20.88;57.04
20115;BME280;10218;42.874;25.320;2023-04-25T08:03:10;96221.72;;;20.55;65.74
20115;BME280;10218;42.874;25.320;2023-04-25T08:05:37;96231.38;;;21.09;55.42
20115;BME280;10218;42.874;25.320;2023-04-25T08:08:05;96225.78;;;19.05;60.90
20115;BME280;10218;42.874;25.320;2023-04-25T08:10:34;96224.41;;;19.79;65.94
20115;BME280;10218;42.874;25.320;2023-04-25T08:13:01;96227.28;;;20.43;63.59
20115;BME280;10218;42.874;25.320;2023-04-25T08:15:28;96219.63;;;20.13;58.85
20115;BME280;10218;42.874;25.320;2023-04-25T08:17:56;96224.66;;;20.53;57.91
20115;BME280;10218;42.874;25.320;2023-04-25T08:20:23;96223.06;;;20.89;54.58
20115;BME280;10218;42.874;25.320;2023-04-25T08:22:51;96222.16;;;20.78;53.88
20115;BME280;10218;42.874;25.320;2023-04-25T08:25:19;96221.63;;;20.76;55.91
20115;BME280;10218;42.874;25.320;2023-04-25T08:27:47;96220.28;;;22.20;51.95
20115;BME280;10218;42.874;25.320;2023-04-25T08:30:14;96219.81;;;23.39;47.46
20115;BME280;10218;42.874;25.320;2023-04-25T08:32:43;96216.00;;;23.30;46.17
20115;BME280;10218;42.874;25.320;2023-04-25T08:35:13;96213.81;;;22.51;47.98
20115;BME280;10218;42.874;25.320;2023-04-25T08:37:40;96206.47;;;21.69;49.73
20115;BME280;10218;42.874;25.320;2023-04-25T08:40:12;96206.16;;;22.18;47.57
20115;BME280;10218;42.874;25.320;2023-04-25T08:42:42;96194.28;;;22.90;47.11
20115;BME280;10218;42.874;25.320;2023-04-25T08:45:10;96200.28;;;21.84;47.94
20115;BME280;10218;42.874;25.320;2023-04-25T08:47:38;96199.72;;;22.80;50.20
20115;BME280;10218;42.874;25.320;2023-04-25T08:50:06;96203.53;;;22.84;45.96
20115;BME280;10218;42.874;25.320;2023-04-25T08:52:44;96211.09;;;23.27;44.24
20115;BME280;10218;42.874;25.320;2023-04-25T08:55:13;96198.69;;;21.93;45.15
20115;BME280;10218;42.874;25.320;2023-04-25T08:57:42;96214.66;;;23.13;45.13
20115;BME280;10218;42.874;25.320;2023-04-25T09:00:12;96208.06;;;22.28;46.51
20115;BME280;10218;42.874;25.320;2023-04-25T09:02:40;96214.47;;;21.39;49.31
20115;BME280;10218;42.874;25.320;2023-04-25T09:05:09;96211.25;;;20.15;48.69
20115;BME280;10218;42.874;25.320;2023-04-25T09:07:39;96208.22;;;20.65;48.46
20115;BME280;10218;42.874;25.320;2023-04-25T09:10:06;96208.62;;;20.83;48.20
20115;BME280;10218;42.874;25.320;2023-04-25T09:12:35;96206.50;;;21.17;47.67
20115;BME280;10218;42.874;25.320;2023-04-25T09:17:34;96228.87;;;19.90;51.87
20115;BME280;10218;42.874;25.320;2023-04-25T09:20:09;96238.31;;;19.88;52.51
20115;BME280;10218;42.874;25.320;2023-04-25T09:22:38;96274.75;;;18.87;62.16
20115;BME280;10218;42.874;25.320;2023-04-25T09:25:12;96277.50;;;17.15;90.93
20115;BME280;10218;42.874;25.320;2023-04-25T09:27:52;96287.94;;;16.88;94.21
20115;BME280;10218;42.874;25.320;2023-04-25T09:30:29;96291.94;;;16.86;100.00
20115;BME280;10218;42.874;25.320;2023-04-25T09:33:10;96299.41;;;15.64;100.00
20115;BME280;10218;42.874;25.320;2023-04-25T09:35:40;96317.09;;;14.86;100.00
20115;BME280;10218;42.874;25.320;2023-04-25T09:38:13;96325.59;;;15.08;100.00
20115;BME280;10218;42.874;25.320;2023-04-25T09:40:47;96336.78;;;14.80;100.00
20115;BME280;10218;42.874;25.320;2023-04-25T09:43:23;96349.19;;;15.30;100.00
20115;BME280;10218;42.874;25.320;2023-04-25T09:45:53;96351.19;;;15.17;100.00
20115;BME280;10218;42.874;25.320;2023-04-25T09:48:26;96345.00;;;14.60;100.00
20115;BME280;10218;42.874;25.320;2023-04-25T09:53:30;96339.97;;;14.70;100.00
20115;BME280;10218;42.874;25.320;2023-04-25T09:56:00;96323.12;;;15.06;100.00
20115;BME280;10218;42.874;25.320;2023-04-25T09:58:29;96317.41;;;15.21;100.00
20115;BME280;10218;42.874;25.320;2023-04-25T10:01:01;96313.88;;;15.81;100.00
20115;BME280;10218;42.874;25.320;2023-04-25T10:03:31;96303.25;;;16.64;100.00
20115;BME280;10218;42.874;25.320;2023-04-25T10:06:02;96305.69;;;17.66;100.00
20115;BME280;10218;42.874;25.320;2023-04-25T10:08:35;96293.69;;;18.70;100.00
20115;BME280;10218;42.874;25.320;2023-04-25T10:11:05;96288.97;;;17.80;100.00
20115;BME280;10218;42.874;25.320;2023-04-25T10:13:33;96286.19;;;17.17;100.00
20115;BME280;10218;42.874;25.320;2023-04-25T10:16:03;96282.97;;;17.78;100.00
20115;BME280;10218;42.874;25.320;2023-04-25T10:18:31;96284.19;;;17.12;100.00
20115;BME280;10218;42.874;25.320;2023-04-25T10:21:01;96276.75;;;16.73;100.00
20115;BME280;10218;42.874;25.320;2023-04-25T10:23:31;96265.97;;;16.32;100.00
20115;BME280;10218;42.874;25.320;2023-04-25T10:25:59;96257.91;;;16.43;100.00
20115;BME280;10218;42.874;25.320;2023-04-25T10:28:27;96272.44;;;15.82;100.00
20115;BME280;10218;42.874;25.320;2023-04-25T10:31:02;96278.34;;;15.36;100.00
20115;BME280;10218;42.874;25.320;2023-04-25T10:33:41;96273.00;;;15.12;100.00
20115;BME280;10218;42.874;25.320;2023-04-25T10:38:37;96258.87;;;15.34;100.00
20115;BME280;10218;42.874;25.320;2023-04-25T10:41:06;96248.41;;;15.81;100.00
20115;BME280;10218;42.874;25.320;2023-04-25T10:43:42;96242.81;;;16.54;100.00
20115;BME280;10218;42.874;25.320;2023-04-25T10:46:17;96239.38;;;15.75;100.00
20115;BME280;10218;42.874;25.320;2023-04-25T10:48:50;96248.06;;;15.77;100.00
20115;BME280;10218;42.874;25.320;2023-04-25T10:51:29;96233.34;;;17.33;100.00
20115;BME280;10218;42.874;25.320;2023-04-25T10:54:02;96222.59;;;17.84;100.00
20115;BME280;10218;42.874;25.320;2023-04-25T10:56:37;96217.47;;;18.45;100.00
20115;BME280;10218;42.874;25.320;2023-04-25T10:59:17;96209.66;;;19.70;100.00
20115;BME280;10218;42.874;25.320;2023-04-25T11:01:48;96200.03;;;19.02;100.00
20115;BME280;10218;42.874;25.320;2023-04-25T11:04:28;96206.81;;;19.21;100.00
20115;BME280;10218;42.874;25.320;2023-04-25T11:09:49;96196.47;;;17.62;100.00
20115;BME280;10218;42.874;25.320;2023-04-25T11:12:16;96200.47;;;19.33;100.00
20115;BME280;10218;42.874;25.320;2023-04-25T11:14:44;96195.34;;;19.75;100.00
20115;BME280;10218;42.874;25.320;2023-04-25T11:17:11;96194.12;;;18.38;100.00
20115;BME280;10218;42.874;25.320;2023-04-25T11:19:38;96187.00;;;18.32;100.00
20115;BME280;10218;42.874;25.320;2023-04-25T11:22:05;96190.84;;;19.42;93.67
20115;BME280;10218;42.874;25.320;2023-04-25T11:24:34;96178.31;;;20.01;76.17
20115;BME280;10218;42.874;25.320;2023-04-25T11:27:02;96192.22;;;19.22;87.76
20115;BME280;10218;42.874;25.320;2023-04-25T11:29:31;96183.28;;;19.44;80.38
20115;BME280;10218;42.874;25.320;2023-04-25T11:31:59;96179.81;;;20.19;82.36
20115;BME280;10218;42.874;25.320;2023-04-25T11:34:32;96159.72;;;19.66;77.03
20115;BME280;10218;42.874;25.320;2023-04-25T11:37:03;96168.97;;;18.88;72.28
20115;BME280;10218;42.874;25.320;2023-04-25T11:39:31;96177.31;;;18.36;97.05
20115;BME280;10218;42.874;25.320;2023-04-25T11:41:58;96167.53;;;17.74;100.00
20115;BME280;10218;42.874;25.320;2023-04-25T11:44:25;96166.84;;;17.95;100.00
20115;BME280;10218;42.874;25.320;2023-04-25T11:46:52;96166.75;;;17.90;100.00
20115;BME280;10218;42.874;25.320;2023-04-25T11:49:19;96170.62;;;17.66;100.00
20115;BME280;10218;42.874;25.320;2023-04-25T11:51:48;96155.34;;;17.71;100.00
20115;BME280;10218;42.874;25.320;2023-04-25T11:54:15;96149.69;;;17.73;100.00
20115;BME280;10218;42.874;25.320;2023-04-25T11:56:46;96143.56;;;18.22;100.00
20115;BME280;10218;42.874;25.320;2023-04-25T11:59:13;96148.62;;;18.02;100.00
20115;BME280;10218;42.874;25.320;2023-04-25T12:01:47;96142.50;;;19.12;99.42
20115;BME280;10218;42.874;25.320;2023-04-25T12:04:22;96135.47;;;18.22;100.00
20115;BME280;10218;42.874;25.320;2023-04-25T12:06:53;96128.63;;;19.69;92.55
20115;BME280;10218;42.874;25.320;2023-04-25T12:09:28;96127.75;;;19.90;88.10
20115;BME280;10218;42.874;25.320;2023-04-25T12:11:56;96131.19;;;21.13;72.72
20115;BME280;10218;42.874;25.320;2023-04-25T12:14:27;96133.88;;;21.60;59.83
20115;BME280;10218;42.874;25.320;2023-04-25T12:17:02;96115.34;;;21.47;58.41
20115;BME280;10218;42.874;25.320;2023-04-25T12:19:35;96114.16;;;21.22;59.13
20115;BME280;10218;42.874;25.320;2023-04-25T12:22:03;96108.97;;;21.88;53.33
20115;BME280;10218;42.874;25.320;2023-04-25T12:24:33;96113.41;;;22.60;54.22
20115;BME280;10218;42.874;25.320;2023-04-25T12:27:04;96129.78;;;20.63;60.93
20115;BME280;10218;42.874;25.320;2023-04-25T12:29:33;96180.59;;;19.05;62.00
20115;BME280;10218;42.874;25.320;2023-04-25T12:32:08;96171.84;;;18.31;70.36
20115;BME280;10218;42.874;25.320;2023-04-25T12:34:35;96163.84;;;17.51;86.19
20115;BME280;10218;42.874;25.320;2023-04-25T12:37:02;96177.25;;;18.03;94.53
20115;BME280;10218;42.874;25.320;2023-04-25T12:39:30;96197.37;;;16.92;93.55
20115;BME280;10218;42.874;25.320;2023-04-25T12:41:57;96191.84;;;16.11;100.00
20115;BME280;10218;42.874;25.320;2023-04-25T12:44:25;96191.50;;;15.77;100.00
20115;BME280;10218;42.874;25.320;2023-04-25T12:46:52;96200.19;;;16.21;100.00
20115;BME280;10218;42.874;25.320;2023-04-25T12:49:19;96203.19;;;16.43;100.00
20115;BME280;10218;42.874;25.320;2023-04-25T12:51:47;96199.09;;;16.40;100.00
20115;BME280;10218;42.874;25.320;2023-04-25T12:54:14;96202.44;;;16.24;100.00
20115;BME280;10218;42.874;25.320;2023-04-25T12:56:41;96212.31;;;16.00;100.00
20115;BME280;10218;42.874;25.320;2023-04-25T12:59:08;96207.81;;;15.82;100.00
20115;BME280;10218;42.874;25.320;2023-04-25T13:01:36;96216.09;;;16.11;100.00